Time;durP1;ratioP1;P1;durP2;ratioP2;P2;SDS_P1;SDS_P2;PMS_P1;PMS_P2;Temp;Humidity;BMP_temperature;BMP_pressure;BME280_temperature;BME280_humidity;BME280_pressure;Samples;Min_cycle;Max_cycle;Signal;HPM_P1;HPM_P2
2024/03/30 00:01:46;;;;;;;;;;;;;;;8.30;79.65;97666.50;105618;1253;72417;-40
2024/03/30 00:04:13;;;;;;;;;;;;;;;8.24;79.15;97667.01;105776;1256;62043;-41
2024/03/30 00:06:40;;;;;;;;;;;;;;;8.23;78.46;97662.68;105636;1254;62145;-40
2024/03/30 00:09:07;;;;;;;;;;;;;;;8.28;77.70;97660.83;105614;1254;74650;-41
2024/03/30 00:11:34;;;;;;;;;;;;;;;8.33;76.46;97663.23;105726;1256;64770;-38
2024/03/30 00:14:01;;;;;;;;;;;;;;;8.41;75.35;97659.11;105688;1254;72526;-38
2024/03/30 00:16:29;;;;;;;;;;;;;;;8.49;74.15;97653.70;105823;1256;62040;-43
2024/03/30 00:18:57;;;;;;;;;;;;;;;8.56;73.54;97653.61;105692;1254;62040;-41
2024/03/30 00:21:24;;;;;;;;;;;;;;;8.62;72.77;97647.94;105779;1256;75186;-43
2024/03/30 00:23:51;;;;;;;;;;;;;;;8.64;72.91;97647.65;105705;1254;66261;-41
2024/03/30 00:26:18;;;;;;;;;;;;;;;8.63;73.04;97646.42;105705;1252;72583;-44
2024/03/30 00:28:45;;;;;;;;;;;;;;;8.60;73.10;97651.38;105751;1254;62018;-40
2024/03/30 00:31:12;;;;;;;;;;;;;;;8.56;72.96;97657.99;105809;1253;62033;-41
2024/03/30 00:33:39;;;;;;;;;;;;;;;8.53;72.57;97660.95;105637;1255;75409;-39
2024/03/30 00:36:07;;;;;;;;;;;;;;;8.50;72.53;97657.09;105857;1256;65425;-40
2024/03/30 00:38:35;;;;;;;;;;;;;;;8.46;72.13;97654.20;105755;1257;72592;-39
2024/03/30 00:41:03;;;;;;;;;;;;;;;8.46;71.85;97650.10;105815;1257;62037;-40
2024/03/30 00:43:30;;;;;;;;;;;;;;;8.46;71.82;97646.10;105633;1251;62056;-40
2024/03/30 00:45:57;;;;;;;;;;;;;;;8.47;71.66;97649.17;105814;1257;75347;-41
2024/03/30 00:48:24;;;;;;;;;;;;;;;8.49;71.32;97650.92;105807;1256;66273;-40
2024/03/30 00:50:51;;;;;;;;;;;;;;;8.51;70.93;97641.01;105863;1251;72246;-40
2024/03/30 00:53:19;;;;;;;;;;;;;;;8.54;70.51;97643.71;105841;1256;62056;-39
2024/03/30 00:55:54;;;;;;;;;;;;;;;8.57;70.34;97642.59;106034;1251;62068;-39
2024/03/30 00:58:21;;;;;;;;;;;;;;;8.57;70.19;97644.05;105798;1251;76165;-41
2024/03/30 01:00:48;;;;;;;;;;;;;;;8.56;69.97;97639.24;105960;1256;65037;-40
2024/03/30 01:03:15;;;;;;;;;;;;;;;8.55;70.09;97630.88;105689;1254;72616;-39
2024/03/30 01:05:42;;;;;;;;;;;;;;;8.51;70.21;97627.83;105711;1256;62053;-39
2024/03/30 01:08:09;;;;;;;;;;;;;;;8.49;70.00;97625.61;105640;1254;62126;-40
2024/03/30 01:10:36;;;;;;;;;;;;;;;8.49;69.74;97623.69;105695;1253;75733;-39
2024/03/30 01:13:04;;;;;;;;;;;;;;;8.49;69.63;97623.23;105688;1256;65576;-40
2024/03/30 01:15:31;;;;;;;;;;;;;;;8.49;70.10;97621.88;105674;1255;72413;-40
2024/03/30 01:17:58;;;;;;;;;;;;;;;8.49;70.19;97624.01;105722;1257;62140;-40
2024/03/30 01:20:25;;;;;;;;;;;;;;;8.49;69.59;97621.66;105878;1254;62348;-40
2024/03/30 01:22:53;;;;;;;;;;;;;;;8.51;70.25;97619.92;105706;1255;75342;-40
2024/03/30 01:25:20;;;;;;;;;;;;;;;8.50;70.23;97622.14;105966;1255;66122;-40
2024/03/30 01:27:47;;;;;;;;;;;;;;;8.47;70.31;97618.80;105629;1254;72479;-40
2024/03/30 01:30:15;;;;;;;;;;;;;;;8.46;70.39;97615.23;106209;1257;62108;-39
2024/03/30 01:32:43;;;;;;;;;;;;;;;8.45;70.57;97615.68;105832;1255;62178;-39
2024/03/30 01:35:10;;;;;;;;;;;;;;;8.44;70.45;97618.35;106377;1255;75807;-40
2024/03/30 01:37:39;;;;;;;;;;;;;;;8.44;70.40;97619.00;105813;1251;66225;-40
2024/03/30 01:40:06;;;;;;;;;;;;;;;8.43;70.81;97617.20;106480;1251;73417;-40
2024/03/30 01:42:35;;;;;;;;;;;;;;;8.43;71.00;97620.02;105763;1257;62020;-39
2024/03/30 01:45:03;;;;;;;;;;;;;;;8.43;71.39;97616.45;105795;1251;62570;-41
2024/03/30 01:47:30;;;;;;;;;;;;;;;8.43;71.52;97619.76;105772;1251;75076;-40
2024/03/30 01:49:57;;;;;;;;;;;;;;;8.42;71.55;97614.77;105667;1256;65669;-40
2024/03/30 01:52:25;;;;;;;;;;;;;;;8.38;71.79;97612.72;105749;1251;72558;-40
2024/03/30 01:54:52;;;;;;;;;;;;;;;8.36;71.66;97611.73;105699;1251;62036;-40
2024/03/30 01:57:20;;;;;;;;;;;;;;;8.37;71.36;97613.27;105782;1251;62126;-38
2024/03/30 01:59:48;;;;;;;;;;;;;;;8.41;71.26;97616.86;105764;1253;75360;-41
2024/03/30 02:02:15;;;;;;;;;;;;;;;8.42;71.21;97617.85;105746;1256;64774;-41
2024/03/30 02:04:42;;;;;;;;;;;;;;;8.41;71.12;97610.17;105730;1254;72515;-40
2024/03/30 02:07:09;;;;;;;;;;;;;;;8.41;71.15;97610.29;105832;1256;62038;-39
2024/03/30 02:09:36;;;;;;;;;;;;;;;8.40;71.26;97611.69;105642;1254;62433;-41
2024/03/30 02:12:03;;;;;;;;;;;;;;;8.38;71.46;97615.34;105683;1256;75369;-41
2024/03/30 02:14:30;;;;;;;;;;;;;;;8.35;71.70;97615.96;105726;1254;66158;-40
2024/03/30 02:16:57;;;;;;;;;;;;;;;8.31;71.95;97617.23;105700;1252;72327;-41
2024/03/30 02:19:24;;;;;;;;;;;;;;;8.26;72.22;97617.38;105733;1255;62044;-42
2024/03/30 02:21:54;;;;;;;;;;;;;;;8.22;72.53;97613.45;105824;1253;62041;-41
2024/03/30 02:24:21;;;;;;;;;;;;;;;8.19;72.60;97613.01;105592;1252;74201;-42
2024/03/30 02:26:48;;;;;;;;;;;;;;;8.16;72.83;97614.33;105789;1255;65536;-43
2024/03/30 02:29:15;;;;;;;;;;;;;;;8.14;72.89;97615.36;105674;1256;72533;-45
2024/03/30 02:31:42;;;;;;;;;;;;;;;8.14;72.95;97612.74;105733;1254;62719;-44
2024/03/30 02:34:09;;;;;;;;;;;;;;;8.15;73.04;97609.79;105890;1252;62062;-43
2024/03/30 02:36:36;;;;;;;;;;;;;;;8.16;73.04;97612.67;105843;1256;75969;-43
2024/03/30 02:39:04;;;;;;;;;;;;;;;8.17;73.17;97614.54;105881;1251;66505;-43
2024/03/30 02:41:31;;;;;;;;;;;;;;;8.17;73.36;97614.85;105662;1254;72279;-43
2024/03/30 02:43:57;;;;;;;;;;;;;;;8.16;73.58;97614.96;105688;1251;61957;-42
2024/03/30 02:46:25;;;;;;;;;;;;;;;8.16;73.80;97616.30;105677;1251;62087;-42
2024/03/30 02:48:52;;;;;;;;;;;;;;;8.13;73.96;97612.65;105640;1251;75075;-42
2024/03/30 02:51:19;;;;;;;;;;;;;;;8.11;73.99;97613.89;105853;1256;65993;-40
2024/03/30 02:53:46;;;;;;;;;;;;;;;8.10;74.27;97615.39;105914;1251;72412;-40
2024/03/30 02:56:13;;;;;;;;;;;;;;;8.07;74.68;97612.51;105965;1257;62044;-45
2024/03/30 02:58:40;;;;;;;;;;;;;;;8.03;74.77;97611.58;105856;1251;62146;-41
2024/03/30 03:01:07;;;;;;;;;;;;;;;8.02;74.92;97614.90;105761;1256;75052;-45
2024/03/30 03:03:34;;;;;;;;;;;;;;;8.04;75.14;97611.41;105679;1256;66006;-42
2024/03/30 03:06:01;;;;;;;;;;;;;;;8.05;75.26;97606.33;105816;1254;72295;-42
2024/03/30 03:08:28;;;;;;;;;;;;;;;8.07;75.36;97603.97;105727;1254;61961;-41
2024/03/30 03:10:55;;;;;;;;;;;;;;;8.09;75.46;97604.85;105647;1252;62155;-41
2024/03/30 03:13:23;;;;;;;;;;;;;;;8.10;75.47;97610.38;105746;1253;75146;-42
2024/03/30 03:15:51;;;;;;;;;;;;;;;8.12;75.46;97609.58;105819;1256;65029;-41
2024/03/30 03:18:18;;;;;;;;;;;;;;;8.13;75.65;97607.27;105786;1254;73131;-45
2024/03/30 03:20:45;;;;;;;;;;;;;;;8.12;75.70;97607.17;105979;1255;62491;-42
2024/03/30 03:23:12;;;;;;;;;;;;;;;8.13;75.69;97604.75;105794;1254;62557;-42
2024/03/30 03:25:39;;;;;;;;;;;;;;;8.15;75.77;97604.20;105661;1256;75034;-42
2024/03/30 03:28:06;;;;;;;;;;;;;;;8.17;75.74;97604.77;105721;1253;65402;-41
2024/03/30 03:30:33;;;;;;;;;;;;;;;8.22;75.79;97599.64;105688;1254;72847;-40
2024/03/30 03:33:01;;;;;;;;;;;;;;;8.27;75.64;97597.38;105780;1255;62043;-39
2024/03/30 03:35:28;;;;;;;;;;;;;;;8.33;75.49;97596.88;106036;1252;62092;-42
2024/03/30 03:37:55;;;;;;;;;;;;;;;8.37;75.54;97599.70;105788;1256;75320;-41
2024/03/30 03:40:22;;;;;;;;;;;;;;;8.37;75.66;97598.85;105862;1256;65583;-35
2024/03/30 03:42:49;;;;;;;;;;;;;;;8.34;75.70;97598.05;105781;1251;72452;-35
2024/03/30 03:45:16;;;;;;;;;;;;;;;8.33;75.67;97596.67;105877;1256;62044;-36
2024/03/30 03:47:43;;;;;;;;;;;;;;;8.31;75.99;97588.24;105816;1251;62126;-43
2024/03/30 03:50:10;;;;;;;;;;;;;;;8.31;76.06;97589.75;105609;1255;75669;-36
2024/03/30 03:52:37;;;;;;;;;;;;;;;8.31;76.06;97593.53;105819;1252;64845;-44
2024/03/30 03:55:05;;;;;;;;;;;;;;;8.34;76.05;97590.20;105686;1252;72279;-45
2024/03/30 03:57:32;;;;;;;;;;;;;;;8.38;76.11;97591.80;105819;1251;62152;-44
2024/03/30 03:59:59;;;;;;;;;;;;;;;8.42;76.11;97597.19;105837;1251;62152;-39
2024/03/30 04:02:26;;;;;;;;;;;;;;;8.47;76.08;97594.19;105666;1253;75123;-39
2024/03/30 04:04:53;;;;;;;;;;;;;;;8.51;76.11;97591.15;105761;1257;65313;-38
2024/03/30 04:07:20;;;;;;;;;;;;;;;8.54;76.27;97590.05;105702;1254;72596;-39
2024/03/30 04:09:50;;;;;;;;;;;;;;;8.54;76.26;97591.55;105703;1257;62033;-39
2024/03/30 04:12:17;;;;;;;;;;;;;;;8.55;76.15;97590.52;105851;1251;62037;-39
2024/03/30 04:14:45;;;;;;;;;;;;;;;8.59;76.12;97592.98;105661;1256;75091;-39
2024/03/30 04:17:12;;;;;;;;;;;;;;;8.63;76.00;97595.10;105838;1254;66967;-38
2024/03/30 04:19:39;;;;;;;;;;;;;;;8.69;75.96;97594.45;105727;1254;72590;-38
2024/03/30 04:22:06;;;;;;;;;;;;;;;8.74;75.83;97595.83;105800;1255;62082;-38
2024/03/30 04:24:33;;;;;;;;;;;;;;;8.78;75.83;97594.48;105761;1254;62743;-40
2024/03/30 04:27:00;;;;;;;;;;;;;;;8.82;75.75;97591.11;105811;1256;75807;-39
2024/03/30 04:29:28;;;;;;;;;;;;;;;8.86;75.93;97593.15;105757;1256;65894;-40
2024/03/30 04:31:55;;;;;;;;;;;;;;;8.88;76.04;97596.59;105753;1254;72311;-40
2024/03/30 04:34:22;;;;;;;;;;;;;;;8.91;76.07;97597.92;105757;1257;61999;-39
2024/03/30 04:36:49;;;;;;;;;;;;;;;8.96;75.99;97598.41;105804;1256;62145;-40
2024/03/30 04:39:16;;;;;;;;;;;;;;;9.03;75.91;97595.64;105731;1253;75109;-39
2024/03/30 04:41:43;;;;;;;;;;;;;;;9.09;75.72;97597.36;105763;1257;64281;-39
2024/03/30 04:44:10;;;;;;;;;;;;;;;9.15;75.68;97594.85;105702;1252;72571;-40
2024/03/30 04:46:37;;;;;;;;;;;;;;;9.21;75.56;97589.96;105897;1257;62091;-39
2024/03/30 04:49:04;;;;;;;;;;;;;;;9.27;75.39;97589.23;105834;1252;62466;-40
2024/03/30 04:51:33;;;;;;;;;;;;;;;9.32;75.26;97588.44;105927;1253;75388;-42
2024/03/30 04:54:00;;;;;;;;;;;;;;;9.38;75.18;97593.16;105779;1251;64033;-44
2024/03/30 04:56:27;;;;;;;;;;;;;;;9.45;74.94;97589.63;105829;1251;72406;-42
2024/03/30 04:58:54;;;;;;;;;;;;;;;9.53;74.77;97589.49;105816;1251;62044;-43
2024/03/30 05:01:22;;;;;;;;;;;;;;;9.62;74.63;97591.65;105663;1252;62203;-40
2024/03/30 05:03:49;;;;;;;;;;;;;;;9.70;74.43;97592.33;105711;1257;75297;-44
2024/03/30 05:06:16;;;;;;;;;;;;;;;9.77;74.46;97591.29;105779;1256;65311;-43
2024/03/30 05:08:43;;;;;;;;;;;;;;;9.83;74.37;97591.24;105702;1254;72364;-44
2024/03/30 05:11:10;;;;;;;;;;;;;;;9.90;74.27;97592.66;105699;1256;62043;-43
2024/03/30 05:13:37;;;;;;;;;;;;;;;9.98;74.17;97593.27;105697;1254;62145;-43
2024/03/30 05:16:04;;;;;;;;;;;;;;;10.06;73.96;97590.21;105718;1254;75332;-43
2024/03/30 05:18:32;;;;;;;;;;;;;;;10.15;73.44;97591.31;105681;1257;66167;-41
2024/03/30 05:21:02;;;;;;;;;;;;;;;10.24;73.16;97587.29;105708;1254;72396;-42
2024/03/30 05:23:30;;;;;;;;;;;;;;;10.34;72.85;97593.10;105751;1255;61973;-40
2024/03/30 05:25:58;;;;;;;;;;;;;;;10.41;72.46;97586.04;105899;1255;62155;-39
2024/03/30 05:28:26;;;;;;;;;;;;;;;10.51;72.11;97582.15;105821;1255;75512;-39
2024/03/30 05:30:54;;;;;;;;;;;;;;;10.59;71.90;97576.83;106009;1256;65075;-43
2024/03/30 05:33:21;;;;;;;;;;;;;;;10.68;71.60;97575.52;105923;1254;72626;-48
2024/03/30 05:35:49;;;;;;;;;;;;;;;10.76;71.54;97579.09;105894;1255;62206;-44
2024/03/30 05:38:16;;;;;;;;;;;;;;;10.83;71.55;97577.11;105847;1251;62209;-43
2024/03/30 05:40:43;;;;;;;;;;;;;;;10.88;71.66;97576.47;105824;1251;75390;-41
2024/03/30 05:43:10;;;;;;;;;;;;;;;10.92;71.68;97576.05;105941;1255;66248;-41
2024/03/30 05:45:39;;;;;;;;;;;;;;;10.95;71.70;97572.55;105771;1251;72969;-44
2024/03/30 05:48:06;;;;;;;;;;;;;;;11.00;71.95;97563.77;106049;1251;62497;-41
2024/03/30 05:50:33;;;;;;;;;;;;;;;11.05;72.22;97567.52;105929;1251;62119;-41
2024/03/30 05:53:01;;;;;;;;;;;;;;;11.09;72.36;97569.84;106026;1257;75362;-40
2024/03/30 05:55:28;;;;;;;;;;;;;;;11.14;72.23;97571.92;106042;1255;66394;-43
2024/03/30 05:57:55;;;;;;;;;;;;;;;11.22;72.11;97567.77;105926;1251;72462;-42
2024/03/30 06:00:24;;;;;;;;;;;;;;;11.32;71.88;97563.66;105827;1257;62079;-41
2024/03/30 06:02:51;;;;;;;;;;;;;;;11.42;72.03;97561.52;105851;1254;62147;-41
2024/03/30 06:05:18;;;;;;;;;;;;;;;11.51;72.23;97569.31;105875;1254;75140;-41
2024/03/30 06:07:45;;;;;;;;;;;;;;;11.59;71.58;97568.99;105701;1256;66284;-39
2024/03/30 06:10:12;;;;;;;;;;;;;;;11.71;71.17;97564.60;106191;1254;72312;-41
2024/03/30 06:12:39;;;;;;;;;;;;;;;11.85;70.68;97569.64;105765;1257;62370;-41
2024/03/30 06:15:06;;;;;;;;;;;;;;;12.02;70.18;97567.54;106340;1251;62113;-39
2024/03/30 06:17:35;;;;;;;;;;;;;;;12.19;69.74;97560.41;105840;1257;75308;-41
2024/03/30 06:20:05;;;;;;;;;;;;;;;12.34;68.63;97560.69;105744;1257;66064;-41
2024/03/30 06:22:32;;;;;;;;;;;;;;;12.48;68.22;97566.85;105932;1254;72591;-41
2024/03/30 06:24:59;;;;;;;;;;;;;;;12.58;67.81;97566.88;105964;1253;62097;-41
2024/03/30 06:27:27;;;;;;;;;;;;;;;12.65;67.60;97566.29;105755;1254;62007;-40
2024/03/30 06:29:54;;;;;;;;;;;;;;;12.72;67.20;97564.98;105710;1256;75165;-40
2024/03/30 06:32:21;;;;;;;;;;;;;;;12.76;66.77;97564.13;105725;1256;65213;-41
2024/03/30 06:34:48;;;;;;;;;;;;;;;12.83;66.73;97566.26;105653;1254;72811;-41
2024/03/30 06:37:15;;;;;;;;;;;;;;;12.90;66.92;97566.52;105821;1257;62057;-42
2024/03/30 06:45:14;;;;;;;;;;;;;;;13.08;66.39;97574.13;106330;1255;66234;-40
2024/03/30 06:47:41;;;;;;;;;;;;;;;13.11;66.32;97570.95;105844;1255;72292;-40
2024/03/30 06:50:08;;;;;;;;;;;;;;;13.15;66.07;97573.58;105762;1257;62046;-39
2024/03/30 06:52:35;;;;;;;;;;;;;;;13.20;66.51;97573.04;105803;1251;62119;-41
2024/03/30 06:55:02;;;;;;;;;;;;;;;13.25;66.76;97575.98;105731;1251;75488;-41
2024/03/30 06:57:30;;;;;;;;;;;;;;;13.33;66.82;97574.48;105857;1256;66286;-40
2024/03/30 06:59:57;;;;;;;;;;;;;;;13.41;66.73;97577.15;105962;1251;71428;-41
2024/03/30 07:02:24;;;;;;;;;;;;;;;13.50;66.36;97577.51;105806;1257;61966;-41
2024/03/30 07:04:51;;;;;;;;;;;;;;;13.58;66.26;97577.13;105808;1254;62014;-40
2024/03/30 07:07:18;;;;;;;;;;;;;;;13.66;65.32;97578.41;105845;1256;75205;-40
2024/03/30 07:09:45;;;;;;;;;;;;;;;13.76;64.68;97576.49;105642;1257;66009;-39
2024/03/30 07:12:12;;;;;;;;;;;;;;;13.84;64.56;97578.44;105718;1254;72406;-39
2024/03/30 07:14:40;;;;;;;;;;;;;;;13.90;64.83;97578.86;105804;1256;62072;-37
2024/03/30 07:17:07;;;;;;;;;;;;;;;13.95;64.89;97580.69;105938;1252;62156;-40
2024/03/30 07:19:41;;;;;;;;;;;;;;;13.98;64.41;97581.89;105599;1257;75351;-41
2024/03/30 07:22:08;;;;;;;;;;;;;;;14.01;63.57;97577.06;105800;1257;65320;-39
2024/03/30 07:24:35;;;;;;;;;;;;;;;14.04;63.44;97580.44;105929;1254;72577;-44
2024/03/30 07:27:04;;;;;;;;;;;;;;;14.08;63.98;97579.31;105732;1257;62047;-42
2024/03/30 07:29:31;;;;;;;;;;;;;;;14.14;64.22;97582.10;105720;1254;62063;-39
2024/03/30 07:32:00;;;;;;;;;;;;;;;14.22;63.89;97576.73;105949;1254;74741;-39
2024/03/30 07:34:28;;;;;;;;;;;;;;;14.31;64.48;97579.18;105825;1256;65923;-40
2024/03/30 07:36:55;;;;;;;;;;;;;;;14.41;64.13;97573.91;105830;1251;72569;-39
2024/03/30 07:39:22;;;;;;;;;;;;;;;14.52;64.32;97572.18;105671;1264;62033;-41
2024/03/30 07:41:49;;;;;;;;;;;;;;;14.64;64.07;97571.29;105703;1256;62094;-40
2024/03/30 07:44:18;;;;;;;;;;;;;;;14.78;64.00;97576.44;105813;1256;75395;-41
2024/03/30 07:46:45;;;;;;;;;;;;;;;14.93;63.01;97569.21;105846;1255;65847;-40
2024/03/30 07:49:13;;;;;;;;;;;;;;;15.12;63.11;97572.55;105686;1251;72628;-40
2024/03/30 07:51:40;;;;;;;;;;;;;;;15.29;63.18;97566.55;105781;1256;62046;-40
2024/03/30 07:54:07;;;;;;;;;;;;;;;15.44;62.86;97565.59;105923;1257;62081;-40
2024/03/30 07:56:34;;;;;;;;;;;;;;;15.58;61.70;97564.02;105822;1257;75176;-40
2024/03/30 07:59:01;;;;;;;;;;;;;;;15.72;60.92;97563.88;105812;1255;66436;-40
2024/03/30 08:01:29;;;;;;;;;;;;;;;15.86;60.55;97560.98;105797;1251;71885;-41
2024/03/30 08:03:56;;;;;;;;;;;;;;;16.01;59.95;97557.84;105841;1257;62100;-40
2024/03/30 08:06:23;;;;;;;;;;;;;;;16.16;59.62;97551.34;105737;1255;62085;-40
2024/03/30 08:08:50;;;;;;;;;;;;;;;16.32;58.38;97556.27;105756;1257;76252;-40
2024/03/30 08:11:17;;;;;;;;;;;;;;;16.46;58.64;97549.50;105934;1256;66118;-41
2024/03/30 08:13:44;;;;;;;;;;;;;;;16.60;58.23;97550.30;105743;1255;72062;-40
2024/03/30 08:16:12;;;;;;;;;;;;;;;16.70;56.91;97549.13;105756;1255;62037;-40
2024/03/30 08:18:40;;;;;;;;;;;;;;;16.74;57.38;97545.55;105702;1258;62169;-40
2024/03/30 08:21:07;;;;;;;;;;;;;;;16.77;57.32;97543.11;105691;1257;75602;-45
2024/03/30 08:23:34;;;;;;;;;;;;;;;16.78;56.05;97543.30;105728;1256;65406;-41
2024/03/30 08:26:01;;;;;;;;;;;;;;;16.73;56.28;97539.80;105704;1254;73986;-40
2024/03/30 08:28:29;;;;;;;;;;;;;;;16.67;56.68;97538.39;105733;1256;61941;-41
2024/03/30 08:30:56;;;;;;;;;;;;;;;16.67;56.62;97533.27;105726;1265;62053;-42
2024/03/30 08:33:23;;;;;;;;;;;;;;;16.68;56.42;97538.34;105622;1254;76068;-42
2024/03/30 08:35:54;;;;;;;;;;;;;;;16.69;56.93;97539.22;105658;1254;65980;-42
2024/03/30 08:38:21;;;;;;;;;;;;;;;16.71;56.68;97537.34;105884;1252;73332;-41
2024/03/30 08:40:48;;;;;;;;;;;;;;;16.73;56.33;97532.70;105882;1256;62034;-41
2024/03/30 08:43:15;;;;;;;;;;;;;;;16.75;56.68;97538.08;105946;1257;62132;-41
2024/03/30 08:45:43;;;;;;;;;;;;;;;16.81;57.43;97532.55;105874;1251;76200;-41
2024/03/30 08:48:13;;;;;;;;;;;;;;;16.92;57.60;97531.94;105696;1257;65045;-40
2024/03/30 08:50:40;;;;;;;;;;;;;;;17.02;57.01;97532.27;105812;1256;72915;-39
2024/03/30 08:53:08;;;;;;;;;;;;;;;17.05;56.21;97527.57;105720;1257;62388;-43
2024/03/30 08:55:36;;;;;;;;;;;;;;;17.04;55.78;97527.07;105670;1256;62055;-41
2024/03/30 08:58:04;;;;;;;;;;;;;;;17.03;55.74;97527.63;105912;1257;76126;-40
2024/03/30 09:00:31;;;;;;;;;;;;;;;17.02;56.06;97525.60;105937;1251;66603;-43
2024/03/30 09:02:58;;;;;;;;;;;;;;;17.05;56.34;97524.14;105789;1257;73272;-40
2024/03/30 09:05:29;;;;;;;;;;;;;;;17.08;56.78;97521.61;105781;1257;62155;-41
2024/03/30 09:07:57;;;;;;;;;;;;;;;17.16;56.27;97516.18;105771;1255;62222;-38
2024/03/30 09:10:25;;;;;;;;;;;;;;;17.24;56.63;97518.50;105810;1257;75385;-41
2024/03/30 09:12:52;;;;;;;;;;;;;;;17.34;55.80;97518.92;105936;1257;66315;-41
2024/03/30 09:15:19;;;;;;;;;;;;;;;17.45;55.54;97511.65;105840;1257;72468;-40
2024/03/30 09:17:46;;;;;;;;;;;;;;;17.57;55.00;97517.30;106042;1257;62059;-41
2024/03/30 09:20:13;;;;;;;;;;;;;;;17.70;54.47;97506.54;106189;1254;62143;-41
2024/03/30 09:22:41;;;;;;;;;;;;;;;17.84;55.32;97501.24;105623;1257;75340;-41
2024/03/30 09:25:13;;;;;;;;;;;;;;;18.02;54.43;97502.25;106351;1257;66627;-41
2024/03/30 09:27:40;;;;;;;;;;;;;;;18.18;53.64;97498.55;105712;1256;72456;-42
2024/03/30 09:30:08;;;;;;;;;;;;;;;18.30;52.59;97499.23;106353;1256;62146;-41
2024/03/30 09:32:39;;;;;;;;;;;;;;;18.37;53.23;97488.94;105824;1255;62156;-44
2024/03/30 09:35:07;;;;;;;;;;;;;;;18.42;52.29;97493.77;105892;1253;75015;-42
2024/03/30 09:37:35;;;;;;;;;;;;;;;18.42;52.24;97487.55;105902;1251;67039;-41
2024/03/30 09:40:02;;;;;;;;;;;;;;;18.40;52.37;97481.41;105812;1257;71493;-41
2024/03/30 09:42:30;;;;;;;;;;;;;;;18.42;51.42;97487.86;105928;1257;62146;-41
2024/03/30 09:44:57;;;;;;;;;;;;;;;18.42;51.06;97478.74;105824;1257;62024;-41
2024/03/30 09:47:25;;;;;;;;;;;;;;;18.43;50.93;97482.41;105768;1253;75382;-42
2024/03/30 09:49:52;;;;;;;;;;;;;;;18.43;50.88;97481.02;105660;1258;66413;-42
2024/03/30 09:52:20;;;;;;;;;;;;;;;18.43;51.51;97477.36;105975;1257;73984;-41
2024/03/30 09:54:49;;;;;;;;;;;;;;;18.45;51.76;97484.69;105976;1256;62058;-39
2024/03/30 09:57:16;;;;;;;;;;;;;;;18.44;51.81;97476.23;105889;1252;62037;-46
2024/03/30 09:59:44;;;;;;;;;;;;;;;18.43;52.16;97473.51;105670;1256;75095;-41
2024/03/30 10:02:11;;;;;;;;;;;;;;;18.47;53.66;97473.99;105823;1257;66069;-42
2024/03/30 10:04:38;;;;;;;;;;;;;;;18.53;53.28;97475.46;105755;1257;73361;-40
2024/03/30 10:07:09;;;;;;;;;;;;;;;18.57;52.77;97472.37;105873;1257;62076;-42
2024/03/30 10:09:36;;;;;;;;;;;;;;;18.55;52.74;97481.08;105878;1255;62373;-40
2024/03/30 10:12:07;;;;;;;;;;;;;;;18.52;53.18;97477.35;105939;1256;76172;-40
2024/03/30 10:14:44;;;;;;;;;;;;;;;18.50;53.38;97479.58;105839;1254;66223;-42
2024/03/30 10:17:11;;;;;;;;;;;;;;;18.58;54.47;97476.09;105806;1258;72408;-41
2024/03/30 10:19:39;;;;;;;;;;;;;;;18.72;53.98;97476.02;105561;1252;62060;-41
2024/03/30 10:22:06;;;;;;;;;;;;;;;18.82;53.64;97477.79;105769;1253;62152;-41
2024/03/30 10:24:33;;;;;;;;;;;;;;;18.84;53.99;97476.98;105813;1258;76026;-40
2024/03/30 10:27:01;;;;;;;;;;;;;;;18.89;54.46;97473.52;105855;1258;66615;-39
2024/03/30 10:29:28;;;;;;;;;;;;;;;18.93;54.59;97473.44;105658;1254;73214;-46
2024/03/30 10:31:55;;;;;;;;;;;;;;;18.99;54.14;97474.91;105757;1255;62034;-41
2024/03/30 10:34:23;;;;;;;;;;;;;;;19.08;55.22;97469.80;105716;1251;62043;-41
2024/03/30 10:36:51;;;;;;;;;;;;;;;19.23;54.07;97469.08;105782;1258;76217;-44
2024/03/30 10:39:18;;;;;;;;;;;;;;;19.33;52.83;97469.59;105849;1251;67087;-40
2024/03/30 10:41:46;;;;;;;;;;;;;;;19.39;52.03;97462.59;105748;1255;72476;-40
2024/03/30 10:44:13;;;;;;;;;;;;;;;19.48;52.11;97467.35;105824;1256;62021;-40
2024/03/30 10:46:40;;;;;;;;;;;;;;;19.62;51.86;97460.84;105906;1251;62368;-40
2024/03/30 10:49:09;;;;;;;;;;;;;;;19.74;49.67;97460.21;105777;1257;75815;-41
2024/03/30 10:51:36;;;;;;;;;;;;;;;19.82;49.61;97455.69;105852;1259;64823;-45
2024/03/30 10:54:06;;;;;;;;;;;;;;;19.92;48.39;97452.81;105664;1257;72411;-41
2024/03/30 10:56:33;;;;;;;;;;;;;;;20.01;48.19;97453.28;105847;1257;62043;-41
2024/03/30 10:59:01;;;;;;;;;;;;;;;20.13;47.85;97461.92;105559;1252;62191;-41
2024/03/30 11:01:29;;;;;;;;;;;;;;;20.24;47.44;97461.27;105805;1256;76203;-42
2024/03/30 11:03:56;;;;;;;;;;;;;;;20.42;48.58;97456.81;105647;1256;67276;-41
2024/03/30 11:06:23;;;;;;;;;;;;;;;20.78;47.70;97456.14;105636;1257;73423;-41
2024/03/30 11:08:50;;;;;;;;;;;;;;;21.11;47.75;97452.92;105749;1257;62065;-45
2024/03/30 11:11:18;;;;;;;;;;;;;;;21.40;45.95;97457.31;105879;1257;62143;-41
2024/03/30 11:13:45;;;;;;;;;;;;;;;21.58;46.04;97457.88;105583;1261;76199;-41
2024/03/30 11:16:12;;;;;;;;;;;;;;;21.80;45.08;97456.70;105887;1257;66089;-41
2024/03/30 11:18:52;;;;;;;;;;;;;;;22.03;43.80;97456.67;105732;1254;211581;-41
2024/03/30 11:21:30;;;;;;;;;;;;;;;22.25;42.08;97463.63;105740;1256;62344;-41
2024/03/30 11:23:57;;;;;;;;;;;;;;;22.41;41.97;97463.05;105722;1254;61995;-41
2024/03/30 11:26:24;;;;;;;;;;;;;;;22.59;41.47;97458.73;105665;1257;76070;-41
2024/03/30 11:29:04;;;;;;;;;;;;;;;22.72;41.56;97458.35;105685;1257;66180;-39
2024/03/30 11:31:39;;;;;;;;;;;;;;;22.86;41.48;97456.94;105845;1255;72344;-41
2024/03/30 11:34:27;;;;;;;;;;;;;;;23.00;40.53;97467.16;105772;1254;62411;-43
2024/03/30 11:37:00;;;;;;;;;;;;;;;23.13;39.10;97458.55;105755;1251;62047;-42
2024/03/30 11:39:33;;;;;;;;;;;;;;;23.25;39.83;97466.54;105917;1251;75558;-44
2024/03/30 11:42:01;;;;;;;;;;;;;;;23.38;39.83;97460.14;105921;1256;67000;-41
2024/03/30 11:44:28;;;;;;;;;;;;;;;23.48;39.37;97465.32;105891;1251;73335;-42
2024/03/30 11:46:55;;;;;;;;;;;;;;;23.55;39.81;97459.39;105882;1257;62405;-41
2024/03/30 11:49:22;;;;;;;;;;;;;;;23.70;39.48;97460.98;105734;1257;62226;-42
2024/03/30 11:51:50;;;;;;;;;;;;;;;23.89;39.34;97455.70;105682;1253;75291;-41
2024/03/30 11:54:20;;;;;;;;;;;;;;;24.11;39.52;97454.87;105781;1264;67476;-41
2024/03/30 11:57:04;;;;;;;;;;;;;;;24.36;38.75;97460.48;106011;1251;72020;-41
2024/03/30 11:59:48;;;;;;;;;;;;;;;24.71;37.61;97455.83;105878;1257;62135;-41
2024/03/30 12:02:15;;;;;;;;;;;;;;;24.95;37.08;97456.48;105815;1251;62152;-38
2024/03/30 12:04:44;;;;;;;;;;;;;;;25.06;36.83;97463.00;105898;1256;76041;-44
2024/03/30 12:07:13;;;;;;;;;;;;;;;25.03;36.05;97459.02;105734;1254;66104;-44
2024/03/30 12:09:40;;;;;;;;;;;;;;;24.91;36.42;97457.50;105745;1254;73273;-47
2024/03/30 12:12:18;;;;;;;;;;;;;;;25.02;35.81;97462.39;105923;1257;62036;-45
2024/03/30 12:14:53;;;;;;;;;;;;;;;24.98;35.25;97459.19;105790;1257;61932;-41
2024/03/30 12:17:20;;;;;;;;;;;;;;;24.85;35.75;97467.30;105687;1254;76242;-41
2024/03/30 12:19:50;;;;;;;;;;;;;;;24.83;35.28;97462.14;105717;1258;67055;-41
2024/03/30 12:22:22;;;;;;;;;;;;;;;24.64;35.76;97462.87;105718;1255;73616;-41
2024/03/30 12:24:50;;;;;;;;;;;;;;;24.55;36.51;97459.20;105813;1257;62065;-40
2024/03/30 12:27:18;;;;;;;;;;;;;;;24.69;36.44;97459.89;105763;1256;62041;-41
2024/03/30 12:29:45;;;;;;;;;;;;;;;24.88;35.93;97460.09;105771;1257;76460;-41
2024/03/30 12:32:12;;;;;;;;;;;;;;;24.96;35.20;97454.73;105899;1256;68523;-41
2024/03/30 12:34:39;;;;;;;;;;;;;;;24.91;35.21;97454.91;105935;1255;73542;-39
2024/03/30 12:37:07;;;;;;;;;;;;;;;24.75;35.52;97448.14;105831;1257;62030;-44
2024/03/30 12:39:34;;;;;;;;;;;;;;;24.50;35.86;97456.16;105753;1257;62076;-44
2024/03/30 12:42:01;;;;;;;;;;;;;;;24.28;36.15;97455.57;105803;1256;76194;-44
2024/03/30 12:44:28;;;;;;;;;;;;;;;24.28;36.54;97448.69;105864;1255;66953;-44
2024/03/30 12:46:55;;;;;;;;;;;;;;;24.44;36.02;97449.77;105982;1256;73255;-41
2024/03/30 12:49:22;;;;;;;;;;;;;;;24.64;35.79;97448.23;105880;1256;62021;-42